sensor_id;sensor_type;location;lat;lon;timestamp;temperature;humidity
78788;DHT22;68131;52.508;5.502;2023-04-19T00:01:06;9.70;70.20
78788;DHT22;68131;52.508;5.502;2023-04-19T00:03:38;9.60;70.30
78788;DHT22;68131;52.508;5.502;2023-04-19T00:06:07;9.70;70.30
78788;DHT22;68131;52.508;5.502;2023-04-19T00:08:39;9.70;70.40
78788;DHT22;68131;52.508;5.502;2023-04-19T00:11:08;9.60;70.50
78788;DHT22;68131;52.508;5.502;2023-04-19T00:13:37;9.60;70.60
78788;DHT22;68131;52.508;5.502;2023-04-19T00:16:07;9.60;70.60
78788;DHT22;68131;52.508;5.502;2023-04-19T00:18:39;9.60;70.70
78788;DHT22;68131;52.508;5.502;2023-04-19T00:21:08;9.60;70.70
78788;DHT22;68131;52.508;5.502;2023-04-19T00:23:37;9.60;70.80
78788;DHT22;68131;52.508;5.502;2023-04-19T00:26:06;9.60;70.90
78788;DHT22;68131;52.508;5.502;2023-04-19T00:28:37;9.60;71.00
78788;DHT22;68131;52.508;5.502;2023-04-19T00:31:06;9.60;70.90
78788;DHT22;68131;52.508;5.502;2023-04-19T00:33:39;9.60;70.90
78788;DHT22;68131;52.508;5.502;2023-04-19T00:36:09;9.60;70.90
78788;DHT22;68131;52.508;5.502;2023-04-19T00:38:38;9.60;70.90
78788;DHT22;68131;52.508;5.502;2023-04-19T00:41:09;9.60;71.00
78788;DHT22;68131;52.508;5.502;2023-04-19T00:43:38;9.60;71.10
78788;DHT22;68131;52.508;5.502;2023-04-19T00:46:08;9.60;71.10
78788;DHT22;68131;52.508;5.502;2023-04-19T00:48:40;9.50;71.20
78788;DHT22;68131;52.508;5.502;2023-04-19T00:51:11;9.50;71.30
78788;DHT22;68131;52.508;5.502;2023-04-19T00:53:41;9.50;71.20
78788;DHT22;68131;52.508;5.502;2023-04-19T00:56:12;9.50;71.30
78788;DHT22;68131;52.508;5.502;2023-04-19T00:58:42;9.50;71.40
78788;DHT22;68131;52.508;5.502;2023-04-19T01:01:11;9.40;71.40
78788;DHT22;68131;52.508;5.502;2023-04-19T01:03:45;9.40;71.50
78788;DHT22;68131;52.508;5.502;2023-04-19T01:06:14;9.40;71.50
78788;DHT22;68131;52.508;5.502;2023-04-19T01:08:44;9.40;71.70
78788;DHT22;68131;52.508;5.502;2023-04-19T01:11:14;9.40;71.70
78788;DHT22;68131;52.508;5.502;2023-04-19T01:13:44;9.40;71.70
78788;DHT22;68131;52.508;5.502;2023-04-19T01:16:13;9.40;71.80
78788;DHT22;68131;52.508;5.502;2023-04-19T01:18:45;9.40;71.80
78788;DHT22;68131;52.508;5.502;2023-04-19T01:21:14;9.40;71.80
78788;DHT22;68131;52.508;5.502;2023-04-19T01:23:46;9.40;71.80
78788;DHT22;68131;52.508;5.502;2023-04-19T01:26:17;9.40;71.70
78788;DHT22;68131;52.508;5.502;2023-04-19T01:28:46;9.50;71.80
78788;DHT22;68131;52.508;5.502;2023-04-19T01:31:16;9.50;71.80
78788;DHT22;68131;52.508;5.502;2023-04-19T01:33:45;9.50;71.80
78788;DHT22;68131;52.508;5.502;2023-04-19T01:36:14;9.50;71.80
78788;DHT22;68131;52.508;5.502;2023-04-19T01:38:45;9.50;71.80
78788;DHT22;68131;52.508;5.502;2023-04-19T01:41:15;9.50;71.70
78788;DHT22;68131;52.508;5.502;2023-04-19T01:43:46;9.50;71.70
78788;DHT22;68131;52.508;5.502;2023-04-19T01:46:16;9.50;71.70
78788;DHT22;68131;52.508;5.502;2023-04-19T01:48:45;9.50;71.70
78788;DHT22;68131;52.508;5.502;2023-04-19T01:51:14;9.50;71.70
78788;DHT22;68131;52.508;5.502;2023-04-19T01:53:46;9.50;71.80
78788;DHT22;68131;52.508;5.502;2023-04-19T01:56:18;9.50;71.80
78788;DHT22;68131;52.508;5.502;2023-04-19T01:58:48;9.50;71.70
78788;DHT22;68131;52.508;5.502;2023-04-19T02:01:17;9.50;71.80
78788;DHT22;68131;52.508;5.502;2023-04-19T02:03:46;9.40;71.80
78788;DHT22;68131;52.508;5.502;2023-04-19T02:06:15;9.40;71.80
78788;DHT22;68131;52.508;5.502;2023-04-19T02:08:47;9.40;71.80
78788;DHT22;68131;52.508;5.502;2023-04-19T02:11:16;9.40;71.80
78788;DHT22;68131;52.508;5.502;2023-04-19T02:13:45;9.40;71.80
78788;DHT22;68131;52.508;5.502;2023-04-19T02:16:14;9.30;71.90
78788;DHT22;68131;52.508;5.502;2023-04-19T02:18:43;9.30;71.90
78788;DHT22;68131;52.508;5.502;2023-04-19T02:21:13;9.30;72.00
78788;DHT22;68131;52.508;5.502;2023-04-19T02:23:42;9.30;72.10
78788;DHT22;68131;52.508;5.502;2023-04-19T02:26:14;9.30;72.10
78788;DHT22;68131;52.508;5.502;2023-04-19T02:28:43;9.30;72.10
78788;DHT22;68131;52.508;5.502;2023-04-19T02:31:12;9.40;72.10
78788;DHT22;68131;52.508;5.502;2023-04-19T02:33:41;9.30;72.20
78788;DHT22;68131;52.508;5.502;2023-04-19T02:36:11;9.40;72.30
78788;DHT22;68131;52.508;5.502;2023-04-19T02:38:40;9.40;72.30
78788;DHT22;68131;52.508;5.502;2023-04-19T02:41:10;9.40;72.40
78788;DHT22;68131;52.508;5.502;2023-04-19T02:43:41;9.40;72.30
78788;DHT22;68131;52.508;5.502;2023-04-19T02:46:12;9.40;72.40
78788;DHT22;68131;52.508;5.502;2023-04-19T02:48:41;9.40;72.50
78788;DHT22;68131;52.508;5.502;2023-04-19T02:51:14;9.40;72.50
78788;DHT22;68131;52.508;5.502;2023-04-19T02:53:44;9.40;72.60
78788;DHT22;68131;52.508;5.502;2023-04-19T02:56:13;9.40;72.50
78788;DHT22;68131;52.508;5.502;2023-04-19T02:58:45;9.40;72.60
78788;DHT22;68131;52.508;5.502;2023-04-19T03:01:15;9.30;72.60
78788;DHT22;68131;52.508;5.502;2023-04-19T03:03:44;9.30;72.40
78788;DHT22;68131;52.508;5.502;2023-04-19T03:06:13;9.30;72.40
78788;DHT22;68131;52.508;5.502;2023-04-19T03:08:42;9.30;72.20
78788;DHT22;68131;52.508;5.502;2023-04-19T03:11:13;9.30;72.30
78788;DHT22;68131;52.508;5.502;2023-04-19T03:13:44;9.20;72.20
78788;DHT22;68131;52.508;5.502;2023-04-19T03:16:14;9.30;72.10
78788;DHT22;68131;52.508;5.502;2023-04-19T03:18:44;9.30;72.00
78788;DHT22;68131;52.508;5.502;2023-04-19T03:21:13;9.20;72.00
78788;DHT22;68131;52.508;5.502;2023-04-19T03:23:50;9.20;71.90
78788;DHT22;68131;52.508;5.502;2023-04-19T03:26:20;9.20;71.80
78788;DHT22;68131;52.508;5.502;2023-04-19T03:28:54;9.20;71.70
78788;DHT22;68131;52.508;5.502;2023-04-19T03:31:33;9.20;71.70
78788;DHT22;68131;52.508;5.502;2023-04-19T03:34:03;9.20;71.60
78788;DHT22;68131;52.508;5.502;2023-04-19T03:36:39;9.20;71.60
78788;DHT22;68131;52.508;5.502;2023-04-19T03:39:08;9.20;71.50
78788;DHT22;68131;52.508;5.502;2023-04-19T03:41:40;9.20;71.40
78788;DHT22;68131;52.508;5.502;2023-04-19T03:44:30;9.10;71.40
78788;DHT22;68131;52.508;5.502;2023-04-19T03:47:01;9.10;71.30
78788;DHT22;68131;52.508;5.502;2023-04-19T03:49:36;9.10;71.20
78788;DHT22;68131;52.508;5.502;2023-04-19T03:52:06;9.10;71.00
78788;DHT22;68131;52.508;5.502;2023-04-19T03:54:35;9.10;70.60
78788;DHT22;68131;52.508;5.502;2023-04-19T03:57:08;9.00;70.50
78788;DHT22;68131;52.508;5.502;2023-04-19T03:59:41;9.00;70.30
78788;DHT22;68131;52.508;5.502;2023-04-19T04:02:11;9.00;70.30
78788;DHT22;68131;52.508;5.502;2023-04-19T04:04:40;9.00;70.30
78788;DHT22;68131;52.508;5.502;2023-04-19T04:07:09;9.00;70.00
78788;DHT22;68131;52.508;5.502;2023-04-19T04:09:38;9.00;69.90
78788;DHT22;68131;52.508;5.502;2023-04-19T04:12:08;9.00;69.50
78788;DHT22;68131;52.508;5.502;2023-04-19T04:14:41;9.00;69.30
78788;DHT22;68131;52.508;5.502;2023-04-19T04:17:12;9.00;69.20
78788;DHT22;68131;52.508;5.502;2023-04-19T04:19:41;9.00;69.00
78788;DHT22;68131;52.508;5.502;2023-04-19T04:22:11;8.90;68.90
78788;DHT22;68131;52.508;5.502;2023-04-19T04:24:42;8.90;68.90
78788;DHT22;68131;52.508;5.502;2023-04-19T04:27:23;8.90;68.40
78788;DHT22;68131;52.508;5.502;2023-04-19T04:29:56;8.90;68.20
78788;DHT22;68131;52.508;5.502;2023-04-19T04:32:27;8.90;68.10
78788;DHT22;68131;52.508;5.502;2023-04-19T04:35:00;9.00;67.80
78788;DHT22;68131;52.508;5.502;2023-04-19T04:37:43;8.90;67.80
78788;DHT22;68131;52.508;5.502;2023-04-19T04:40:14;8.90;67.40
78788;DHT22;68131;52.508;5.502;2023-04-19T04:42:43;8.90;67.20
78788;DHT22;68131;52.508;5.502;2023-04-19T04:45:16;8.90;66.90
78788;DHT22;68131;52.508;5.502;2023-04-19T04:47:46;8.90;66.80
78788;DHT22;68131;52.508;5.502;2023-04-19T04:50:16;8.90;66.60
78788;DHT22;68131;52.508;5.502;2023-04-19T04:52:46;8.90;66.60
78788;DHT22;68131;52.508;5.502;2023-04-19T04:55:21;8.80;66.30
78788;DHT22;68131;52.508;5.502;2023-04-19T04:57:50;8.80;66.20
78788;DHT22;68131;52.508;5.502;2023-04-19T05:00:32;8.80;66.10
78788;DHT22;68131;52.508;5.502;2023-04-19T05:03:04;8.70;65.80
78788;DHT22;68131;52.508;5.502;2023-04-19T05:05:38;8.70;65.50
78788;DHT22;68131;52.508;5.502;2023-04-19T05:08:07;8.90;65.30
78788;DHT22;68131;52.508;5.502;2023-04-19T05:10:37;9.30;64.60
78788;DHT22;68131;52.508;5.502;2023-04-19T05:13:06;9.80;63.60
78788;DHT22;68131;52.508;5.502;2023-04-19T05:15:38;10.40;62.80
78788;DHT22;68131;52.508;5.502;2023-04-19T05:18:08;10.90;61.60
78788;DHT22;68131;52.508;5.502;2023-04-19T05:20:37;11.30;60.20
78788;DHT22;68131;52.508;5.502;2023-04-19T05:23:16;11.50;59.60
78788;DHT22;68131;52.508;5.502;2023-04-19T05:25:45;11.60;59.00
78788;DHT22;68131;52.508;5.502;2023-04-19T05:28:14;11.70;59.00
78788;DHT22;68131;52.508;5.502;2023-04-19T05:30:58;11.90;58.70
78788;DHT22;68131;52.508;5.502;2023-04-19T05:33:32;12.00;58.30
78788;DHT22;68131;52.508;5.502;2023-04-19T05:36:02;11.90;58.20
78788;DHT22;68131;52.508;5.502;2023-04-19T05:38:31;11.90;58.50
78788;DHT22;68131;52.508;5.502;2023-04-19T05:41:01;11.90;57.80
78788;DHT22;68131;52.508;5.502;2023-04-19T05:43:31;11.70;57.70
78788;DHT22;68131;52.508;5.502;2023-04-19T05:46:03;11.50;57.70
78788;DHT22;68131;52.508;5.502;2023-04-19T05:48:33;11.30;57.40
78788;DHT22;68131;52.508;5.502;2023-04-19T05:51:40;11.20;57.70
78788;DHT22;68131;52.508;5.502;2023-04-19T05:54:28;11.20;57.10
78788;DHT22;68131;52.508;5.502;2023-04-19T05:57:01;11.10;57.50
78788;DHT22;68131;52.508;5.502;2023-04-19T05:59:30;11.00;57.20
78788;DHT22;68131;52.508;5.502;2023-04-19T06:02:01;10.90;57.20
78788;DHT22;68131;52.508;5.502;2023-04-19T06:04:31;10.80;57.00
78788;DHT22;68131;52.508;5.502;2023-04-19T06:07:00;10.70;57.60
78788;DHT22;68131;52.508;5.502;2023-04-19T06:09:29;10.70;57.60
78788;DHT22;68131;52.508;5.502;2023-04-19T06:11:58;10.70;57.20
78788;DHT22;68131;52.508;5.502;2023-04-19T06:14:27;10.80;57.20
78788;DHT22;68131;52.508;5.502;2023-04-19T06:16:57;10.80;57.40
78788;DHT22;68131;52.508;5.502;2023-04-19T06:19:28;10.80;57.20
78788;DHT22;68131;52.508;5.502;2023-04-19T06:21:59;10.80;57.10
78788;DHT22;68131;52.508;5.502;2023-04-19T06:24:28;10.80;57.60
78788;DHT22;68131;52.508;5.502;2023-04-19T06:26:57;10.80;57.00
78788;DHT22;68131;52.508;5.502;2023-04-19T06:29:27;10.80;57.30
78788;DHT22;68131;52.508;5.502;2023-04-19T06:31:56;10.90;56.80
78788;DHT22;68131;52.508;5.502;2023-04-19T06:34:27;11.10;56.80
78788;DHT22;68131;52.508;5.502;2023-04-19T06:36:56;11.20;56.60
78788;DHT22;68131;52.508;5.502;2023-04-19T06:39:26;11.20;55.80
78788;DHT22;68131;52.508;5.502;2023-04-19T06:41:55;11.10;55.70
78788;DHT22;68131;52.508;5.502;2023-04-19T06:44:24;11.10;55.80
78788;DHT22;68131;52.508;5.502;2023-04-19T06:46:53;11.10;56.30
78788;DHT22;68131;52.508;5.502;2023-04-19T06:49:22;11.30;56.20
78788;DHT22;68131;52.508;5.502;2023-04-19T06:51:54;11.40;55.70
78788;DHT22;68131;52.508;5.502;2023-04-19T06:54:23;11.40;55.60
78788;DHT22;68131;52.508;5.502;2023-04-19T06:56:52;11.30;55.50
78788;DHT22;68131;52.508;5.502;2023-04-19T06:59:21;11.30;55.40
78788;DHT22;68131;52.508;5.502;2023-04-19T07:01:53;11.40;55.40
78788;DHT22;68131;52.508;5.502;2023-04-19T07:04:23;11.40;54.90
78788;DHT22;68131;52.508;5.502;2023-04-19T07:06:55;11.40;54.90
78788;DHT22;68131;52.508;5.502;2023-04-19T07:09:25;11.50;55.00
78788;DHT22;68131;52.508;5.502;2023-04-19T07:11:54;11.70;54.50
78788;DHT22;68131;52.508;5.502;2023-04-19T07:14:23;11.80;54.10
78788;DHT22;68131;52.508;5.502;2023-04-19T07:16:52;11.90;53.30
78788;DHT22;68131;52.508;5.502;2023-04-19T07:19:21;11.90;53.10
78788;DHT22;68131;52.508;5.502;2023-04-19T07:21:51;11.80;53.40
78788;DHT22;68131;52.508;5.502;2023-04-19T07:24:23;11.80;53.40
78788;DHT22;68131;52.508;5.502;2023-04-19T07:26:53;11.80;53.40
78788;DHT22;68131;52.508;5.502;2023-04-19T07:29:22;11.80;53.50
78788;DHT22;68131;52.508;5.502;2023-04-19T07:31:51;11.80;52.90
78788;DHT22;68131;52.508;5.502;2023-04-19T07:34:20;11.80;52.40
78788;DHT22;68131;52.508;5.502;2023-04-19T07:36:49;11.80;52.50
78788;DHT22;68131;52.508;5.502;2023-04-19T07:39:18;11.90;51.70
78788;DHT22;68131;52.508;5.502;2023-04-19T07:41:50;12.00;51.80
78788;DHT22;68131;52.508;5.502;2023-04-19T07:44:19;11.90;52.20
78788;DHT22;68131;52.508;5.502;2023-04-19T07:46:48;11.90;51.80
78788;DHT22;68131;52.508;5.502;2023-04-19T07:49:17;11.80;52.00
78788;DHT22;68131;52.508;5.502;2023-04-19T07:51:47;11.80;52.40
78788;DHT22;68131;52.508;5.502;2023-04-19T07:54:16;11.80;51.50
78788;DHT22;68131;52.508;5.502;2023-04-19T07:56:45;11.80;51.90
78788;DHT22;68131;52.508;5.502;2023-04-19T07:59:17;12.00;51.20
78788;DHT22;68131;52.508;5.502;2023-04-19T08:01:46;11.90;51.20
78788;DHT22;68131;52.508;5.502;2023-04-19T08:04:15;11.90;51.40
78788;DHT22;68131;52.508;5.502;2023-04-19T08:06:45;12.00;51.30
78788;DHT22;68131;52.508;5.502;2023-04-19T08:09:14;12.00;50.60
78788;DHT22;68131;52.508;5.502;2023-04-19T08:11:43;12.00;51.00
78788;DHT22;68131;52.508;5.502;2023-04-19T08:14:12;12.10;51.00
78788;DHT22;68131;52.508;5.502;2023-04-19T08:16:43;12.20;50.50
78788;DHT22;68131;52.508;5.502;2023-04-19T08:19:12;12.20;50.60
78788;DHT22;68131;52.508;5.502;2023-04-19T08:21:41;12.20;50.60
78788;DHT22;68131;52.508;5.502;2023-04-19T08:24:11;12.20;50.30
78788;DHT22;68131;52.508;5.502;2023-04-19T08:26:40;12.30;50.00
78788;DHT22;68131;52.508;5.502;2023-04-19T08:29:09;12.30;49.70
78788;DHT22;68131;52.508;5.502;2023-04-19T08:31:38;12.40;49.40
78788;DHT22;68131;52.508;5.502;2023-04-19T08:34:09;12.50;49.80
78788;DHT22;68131;52.508;5.502;2023-04-19T08:36:38;12.50;50.10
78788;DHT22;68131;52.508;5.502;2023-04-19T08:39:07;12.60;49.50
78788;DHT22;68131;52.508;5.502;2023-04-19T08:41:38;12.50;49.70
78788;DHT22;68131;52.508;5.502;2023-04-19T08:44:09;12.60;49.40
78788;DHT22;68131;52.508;5.502;2023-04-19T08:46:40;12.60;49.00
78788;DHT22;68131;52.508;5.502;2023-04-19T08:49:13;12.70;48.90
78788;DHT22;68131;52.508;5.502;2023-04-19T08:51:47;12.60;48.70
78788;DHT22;68131;52.508;5.502;2023-04-19T08:54:17;12.60;49.00
78788;DHT22;68131;52.508;5.502;2023-04-19T08:56:47;12.60;49.40
78788;DHT22;68131;52.508;5.502;2023-04-19T08:59:16;12.70;49.20
78788;DHT22;68131;52.508;5.502;2023-04-19T09:01:46;12.80;49.40
78788;DHT22;68131;52.508;5.502;2023-04-19T09:04:17;12.90;48.90
78788;DHT22;68131;52.508;5.502;2023-04-19T09:06:47;13.00;48.40
78788;DHT22;68131;52.508;5.502;2023-04-19T09:09:17;13.00;48.30
78788;DHT22;68131;52.508;5.502;2023-04-19T09:11:47;12.90;48.10
78788;DHT22;68131;52.508;5.502;2023-04-19T09:14:18;12.90;47.90
78788;DHT22;68131;52.508;5.502;2023-04-19T09:16:48;12.90;48.50
78788;DHT22;68131;52.508;5.502;2023-04-19T09:19:20;13.10;48.70
78788;DHT22;68131;52.508;5.502;2023-04-19T09:21:49;13.20;48.80
78788;DHT22;68131;52.508;5.502;2023-04-19T09:24:18;13.30;48.30
78788;DHT22;68131;52.508;5.502;2023-04-19T09:26:55;13.40;47.60
78788;DHT22;68131;52.508;5.502;2023-04-19T09:29:24;13.40;47.80
78788;DHT22;68131;52.508;5.502;2023-04-19T09:31:57;13.50;48.10
78788;DHT22;68131;52.508;5.502;2023-04-19T09:34:29;13.60;47.00
78788;DHT22;68131;52.508;5.502;2023-04-19T09:37:10;13.60;47.60
78788;DHT22;68131;52.508;5.502;2023-04-19T09:39:40;13.60;47.20
78788;DHT22;68131;52.508;5.502;2023-04-19T09:42:09;13.60;47.70
78788;DHT22;68131;52.508;5.502;2023-04-19T09:44:38;13.70;47.40
78788;DHT22;68131;52.508;5.502;2023-04-19T09:47:21;13.70;47.30
78788;DHT22;68131;52.508;5.502;2023-04-19T09:50:10;13.60;47.80
78788;DHT22;68131;52.508;5.502;2023-04-19T09:52:39;13.70;47.20
78788;DHT22;68131;52.508;5.502;2023-04-19T09:55:09;13.60;47.00
78788;DHT22;68131;52.508;5.502;2023-04-19T09:57:38;13.70;46.70
78788;DHT22;68131;52.508;5.502;2023-04-19T10:00:09;13.70;46.00
78788;DHT22;68131;52.508;5.502;2023-04-19T10:02:41;13.70;46.50
78788;DHT22;68131;52.508;5.502;2023-04-19T10:05:15;13.70;46.20
78788;DHT22;68131;52.508;5.502;2023-04-19T10:07:45;13.70;45.90
78788;DHT22;68131;52.508;5.502;2023-04-19T10:10:15;13.80;46.20
78788;DHT22;68131;52.508;5.502;2023-04-19T10:12:48;13.80;46.40
78788;DHT22;68131;52.508;5.502;2023-04-19T10:15:19;14.00;45.90
78788;DHT22;68131;52.508;5.502;2023-04-19T10:17:50;14.10;45.70
78788;DHT22;68131;52.508;5.502;2023-04-19T10:20:25;14.00;45.60
78788;DHT22;68131;52.508;5.502;2023-04-19T10:22:58;14.00;45.40
78788;DHT22;68131;52.508;5.502;2023-04-19T10:25:28;14.00;46.10
78788;DHT22;68131;52.508;5.502;2023-04-19T10:27:58;14.10;46.20
78788;DHT22;68131;52.508;5.502;2023-04-19T10:30:27;14.20;45.40
78788;DHT22;68131;52.508;5.502;2023-04-19T10:32:57;14.20;45.10
78788;DHT22;68131;52.508;5.502;2023-04-19T10:35:36;14.20;45.10
78788;DHT22;68131;52.508;5.502;2023-04-19T10:38:07;14.10;45.50
78788;DHT22;68131;52.508;5.502;2023-04-19T10:40:56;14.20;45.10
78788;DHT22;68131;52.508;5.502;2023-04-19T10:43:27;14.20;45.30
78788;DHT22;68131;52.508;5.502;2023-04-19T10:45:59;14.20;45.40
78788;DHT22;68131;52.508;5.502;2023-04-19T10:48:37;14.30;45.30
78788;DHT22;68131;52.508;5.502;2023-04-19T10:51:16;14.40;44.50
78788;DHT22;68131;52.508;5.502;2023-04-19T10:53:56;14.30;44.30
78788;DHT22;68131;52.508;5.502;2023-04-19T10:59:31;14.20;43.60
78788;DHT22;68131;52.508;5.502;2023-04-19T11:02:01;14.10;43.90
78788;DHT22;68131;52.508;5.502;2023-04-19T11:04:58;14.20;43.60
78788;DHT22;68131;52.508;5.502;2023-04-19T11:07:40;14.20;43.90
78788;DHT22;68131;52.508;5.502;2023-04-19T11:10:10;14.40;43.40
78788;DHT22;68131;52.508;5.502;2023-04-19T11:12:43;14.50;43.80
78788;DHT22;68131;52.508;5.502;2023-04-19T11:15:12;14.50;43.30
78788;DHT22;68131;52.508;5.502;2023-04-19T11:17:41;14.60;43.90
78788;DHT22;68131;52.508;5.502;2023-04-19T11:20:11;14.70;43.80
78788;DHT22;68131;52.508;5.502;2023-04-19T11:22:44;14.70;43.70
78788;DHT22;68131;52.508;5.502;2023-04-19T11:25:15;14.70;42.90
78788;DHT22;68131;52.508;5.502;2023-04-19T11:27:45;14.50;43.30
78788;DHT22;68131;52.508;5.502;2023-04-19T11:30:16;14.50;42.70
78788;DHT22;68131;52.508;5.502;2023-04-19T11:32:48;14.40;42.30
78788;DHT22;68131;52.508;5.502;2023-04-19T11:35:19;14.50;42.40
78788;DHT22;68131;52.508;5.502;2023-04-19T11:37:51;14.40;42.30
78788;DHT22;68131;52.508;5.502;2023-04-19T11:40:23;14.40;42.40
78788;DHT22;68131;52.508;5.502;2023-04-19T11:42:53;14.50;42.90
78788;DHT22;68131;52.508;5.502;2023-04-19T11:45:25;14.50;42.50
78788;DHT22;68131;52.508;5.502;2023-04-19T11:47:55;14.50;42.50
78788;DHT22;68131;52.508;5.502;2023-04-19T11:50:32;14.50;42.40
78788;DHT22;68131;52.508;5.502;2023-04-19T11:53:13;14.50;43.10
78788;DHT22;68131;52.508;5.502;2023-04-19T11:55:44;14.60;42.60
78788;DHT22;68131;52.508;5.502;2023-04-19T11:58:35;14.70;43.00
78788;DHT22;68131;52.508;5.502;2023-04-19T12:01:06;14.60;43.80
78788;DHT22;68131;52.508;5.502;2023-04-19T12:03:40;14.60;44.20
78788;DHT22;68131;52.508;5.502;2023-04-19T12:06:12;14.60;43.80
78788;DHT22;68131;52.508;5.502;2023-04-19T12:08:45;14.60;43.90
78788;DHT22;68131;52.508;5.502;2023-04-19T12:11:16;14.60;44.70
78788;DHT22;68131;52.508;5.502;2023-04-19T12:13:46;14.70;44.80
78788;DHT22;68131;52.508;5.502;2023-04-19T12:16:26;14.80;44.50
78788;DHT22;68131;52.508;5.502;2023-04-19T12:18:55;14.80;44.10
78788;DHT22;68131;52.508;5.502;2023-04-19T12:21:26;14.70;44.10
78788;DHT22;68131;52.508;5.502;2023-04-19T12:24:00;14.70;44.10
78788;DHT22;68131;52.508;5.502;2023-04-19T12:26:29;14.70;44.50
78788;DHT22;68131;52.508;5.502;2023-04-19T12:28:59;14.80;44.20
78788;DHT22;68131;52.508;5.502;2023-04-19T12:31:29;14.90;44.50
78788;DHT22;68131;52.508;5.502;2023-04-19T12:33:59;14.90;44.30
78788;DHT22;68131;52.508;5.502;2023-04-19T12:36:29;15.00;43.20
78788;DHT22;68131;52.508;5.502;2023-04-19T12:39:00;14.90;43.40
78788;DHT22;68131;52.508;5.502;2023-04-19T12:41:30;14.90;43.60
78788;DHT22;68131;52.508;5.502;2023-04-19T12:43:59;15.00;43.10
78788;DHT22;68131;52.508;5.502;2023-04-19T12:46:28;15.00;43.40
78788;DHT22;68131;52.508;5.502;2023-04-19T12:48:57;14.90;43.70
78788;DHT22;68131;52.508;5.502;2023-04-19T12:51:26;15.00;43.80
78788;DHT22;68131;52.508;5.502;2023-04-19T12:53:56;15.00;43.20
78788;DHT22;68131;52.508;5.502;2023-04-19T12:56:29;15.00;42.50
78788;DHT22;68131;52.508;5.502;2023-04-19T12:58:58;15.00;43.00
78788;DHT22;68131;52.508;5.502;2023-04-19T13:01:27;15.00;43.00
78788;DHT22;68131;52.508;5.502;2023-04-19T13:03:56;15.00;43.40
78788;DHT22;68131;52.508;5.502;2023-04-19T13:06:25;15.00;43.40
78788;DHT22;68131;52.508;5.502;2023-04-19T13:08:55;15.10;43.50
78788;DHT22;68131;52.508;5.502;2023-04-19T13:11:24;15.10;43.50
78788;DHT22;68131;52.508;5.502;2023-04-19T13:13:56;15.10;43.20
78788;DHT22;68131;52.508;5.502;2023-04-19T13:16:25;15.10;43.10
78788;DHT22;68131;52.508;5.502;2023-04-19T13:18:54;15.10;43.40
78788;DHT22;68131;52.508;5.502;2023-04-19T13:21:23;15.20;44.10
78788;DHT22;68131;52.508;5.502;2023-04-19T13:23:53;15.30;43.60
78788;DHT22;68131;52.508;5.502;2023-04-19T13:26:22;15.40;43.40
78788;DHT22;68131;52.508;5.502;2023-04-19T13:28:51;15.40;43.20
78788;DHT22;68131;52.508;5.502;2023-04-19T13:31:24;15.40;43.30
78788;DHT22;68131;52.508;5.502;2023-04-19T13:33:53;15.30;43.50
78788;DHT22;68131;52.508;5.502;2023-04-19T13:36:22;15.30;43.70
78788;DHT22;68131;52.508;5.502;2023-04-19T13:38:52;15.30;43.80
78788;DHT22;68131;52.508;5.502;2023-04-19T13:41:22;15.30;44.40
78788;DHT22;68131;52.508;5.502;2023-04-19T13:43:51;15.40;44.00
78788;DHT22;68131;52.508;5.502;2023-04-19T13:46:22;15.50;43.40
78788;DHT22;68131;52.508;5.502;2023-04-19T13:48:51;15.40;44.00
78788;DHT22;68131;52.508;5.502;2023-04-19T13:51:20;15.40;44.50
78788;DHT22;68131;52.508;5.502;2023-04-19T13:53:50;15.40;44.40
78788;DHT22;68131;52.508;5.502;2023-04-19T13:56:19;15.40;43.80
78788;DHT22;68131;52.508;5.502;2023-04-19T13:58:48;15.40;43.90
78788;DHT22;68131;52.508;5.502;2023-04-19T14:01:17;15.30;44.40
78788;DHT22;68131;52.508;5.502;2023-04-19T14:03:49;15.40;44.80
78788;DHT22;68131;52.508;5.502;2023-04-19T14:06:18;15.40;44.50
78788;DHT22;68131;52.508;5.502;2023-04-19T14:08:47;15.40;44.40
78788;DHT22;68131;52.508;5.502;2023-04-19T14:11:16;15.30;44.60
78788;DHT22;68131;52.508;5.502;2023-04-19T14:13:46;15.30;45.20
78788;DHT22;68131;52.508;5.502;2023-04-19T14:16:16;15.30;46.00
78788;DHT22;68131;52.508;5.502;2023-04-19T14:18:48;15.40;45.90
78788;DHT22;68131;52.508;5.502;2023-04-19T14:21:17;15.50;45.50
78788;DHT22;68131;52.508;5.502;2023-04-19T14:23:46;15.30;46.00
78788;DHT22;68131;52.508;5.502;2023-04-19T14:26:16;15.30;46.50
78788;DHT22;68131;52.508;5.502;2023-04-19T14:28:45;15.30;46.70
78788;DHT22;68131;52.508;5.502;2023-04-19T14:31:14;15.30;46.80
78788;DHT22;68131;52.508;5.502;2023-04-19T14:33:43;15.40;46.40
78788;DHT22;68131;52.508;5.502;2023-04-19T14:36:15;15.40;46.60
78788;DHT22;68131;52.508;5.502;2023-04-19T14:38:44;15.40;45.70
78788;DHT22;68131;52.508;5.502;2023-04-19T14:41:13;15.30;46.00
78788;DHT22;68131;52.508;5.502;2023-04-19T14:43:42;15.30;46.10
78788;DHT22;68131;52.508;5.502;2023-04-19T14:46:12;15.20;46.00
78788;DHT22;68131;52.508;5.502;2023-04-19T14:48:41;15.20;45.90
78788;DHT22;68131;52.508;5.502;2023-04-19T14:51:10;15.10;46.30
78788;DHT22;68131;52.508;5.502;2023-04-19T14:53:41;15.10;46.40
78788;DHT22;68131;52.508;5.502;2023-04-19T14:56:11;15.20;46.20
78788;DHT22;68131;52.508;5.502;2023-04-19T14:58:40;15.10;45.80
78788;DHT22;68131;52.508;5.502;2023-04-19T15:01:12;15.10;45.90
78788;DHT22;68131;52.508;5.502;2023-04-19T15:03:41;15.10;46.60
78788;DHT22;68131;52.508;5.502;2023-04-19T15:06:11;15.10;47.40
78788;DHT22;68131;52.508;5.502;2023-04-19T15:08:42;15.10;47.90
78788;DHT22;68131;52.508;5.502;2023-04-19T15:11:12;15.10;48.40
78788;DHT22;68131;52.508;5.502;2023-04-19T15:13:41;15.20;47.90
78788;DHT22;68131;52.508;5.502;2023-04-19T15:16:10;15.20;48.20
78788;DHT22;68131;52.508;5.502;2023-04-19T15:18:39;15.20;47.90
78788;DHT22;68131;52.508;5.502;2023-04-19T15:21:08;15.20;47.70
78788;DHT22;68131;52.508;5.502;2023-04-19T15:23:37;15.10;47.60
78788;DHT22;68131;52.508;5.502;2023-04-19T15:26:09;15.00;47.70
78788;DHT22;68131;52.508;5.502;2023-04-19T15:28:38;15.00;47.90
78788;DHT22;68131;52.508;5.502;2023-04-19T15:31:07;15.00;47.90
78788;DHT22;68131;52.508;5.502;2023-04-19T15:33:36;15.00;48.20
78788;DHT22;68131;52.508;5.502;2023-04-19T15:36:06;15.00;48.10
78788;DHT22;68131;52.508;5.502;2023-04-19T15:38:35;15.00;48.20
78788;DHT22;68131;52.508;5.502;2023-04-19T15:41:04;15.00;47.90
78788;DHT22;68131;52.508;5.502;2023-04-19T15:43:36;14.90;48.10
78788;DHT22;68131;52.508;5.502;2023-04-19T15:46:05;14.90;48.60
78788;DHT22;68131;52.508;5.502;2023-04-19T15:48:34;14.90;48.70
78788;DHT22;68131;52.508;5.502;2023-04-19T15:51:03;14.90;48.90
78788;DHT22;68131;52.508;5.502;2023-04-19T15:53:33;14.90;48.70
78788;DHT22;68131;52.508;5.502;2023-04-19T15:56:04;14.90;48.90
78788;DHT22;68131;52.508;5.502;2023-04-19T15:58:35;14.90;48.80
78788;DHT22;68131;52.508;5.502;2023-04-19T16:01:07;14.90;48.50